createdAt,value
2022-07-26T00:01:32.201Z,50.86
2022-07-26T00:04:00.818Z,52.11
2022-07-26T00:06:28.591Z,53.41
2022-07-26T00:08:56.381Z,54.68
2022-07-26T00:11:23.851Z,55.91
2022-07-26T00:14:17.161Z,56.84
2022-07-26T00:16:44.499Z,57.37
2022-07-26T00:19:12.043Z,58.07
2022-07-26T00:21:40.903Z,56.37
2022-07-26T00:24:08.870Z,55.43
2022-07-26T00:26:36.794Z,54.84
2022-07-26T00:29:06.017Z,55.08
2022-07-26T00:31:33.869Z,56.08
2022-07-26T00:34:01.447Z,57.31
2022-07-26T00:36:30.110Z,58.44
2022-07-26T00:38:58.007Z,58.85
2022-07-26T00:41:25.346Z,59.32
2022-07-26T00:43:53.809Z,58.55
2022-07-26T00:46:21.278Z,57.82
2022-07-26T00:48:48.672Z,57.50
2022-07-26T00:51:16.235Z,58.70
2022-07-26T00:53:45.750Z,58.46
2022-07-26T00:56:14.646Z,57.88
2022-07-26T00:58:43.229Z,57.75
2022-07-26T01:01:12.726Z,57.83
2022-07-26T01:03:40.213Z,57.60
2022-07-26T01:06:08.186Z,56.60
2022-07-26T01:08:35.957Z,56.17
2022-07-26T01:11:04.236Z,55.97
2022-07-26T01:13:35.307Z,57.21
2022-07-26T01:16:04.074Z,57.12
2022-07-26T01:18:31.999Z,57.71
2022-07-26T01:21:09.542Z,56.13
2022-07-26T01:23:42.638Z,55.62
2022-07-26T01:26:10.824Z,57.16
2022-07-26T01:28:39.653Z,58.86
2022-07-26T01:31:08.230Z,58.99
2022-07-26T01:33:35.922Z,58.36
2022-07-26T01:36:03.516Z,57.59
2022-07-26T01:38:30.815Z,56.85
2022-07-26T01:40:58.110Z,57.11
2022-07-26T01:43:25.346Z,57.08
2022-07-26T01:45:55.185Z,56.79
2022-07-26T01:48:22.744Z,56.09
2022-07-26T01:50:49.973Z,56.16
2022-07-26T01:53:17.212Z,55.84
2022-07-26T01:55:44.360Z,55.84
2022-07-26T01:58:11.578Z,56.83
2022-07-26T02:00:38.706Z,56.67
2022-07-26T02:03:05.968Z,57.75
2022-07-26T02:05:33.259Z,58.32
2022-07-26T02:08:00.604Z,57.64
2022-07-26T02:10:50.947Z,56.76
2022-07-26T02:13:18.129Z,57.24
2022-07-26T02:15:45.366Z,57.25
2022-07-26T02:18:12.597Z,57.50
2022-07-26T02:20:39.756Z,57.91
2022-07-26T02:23:07.005Z,58.33
2022-07-26T02:25:34.173Z,59.07
2022-07-26T02:28:01.633Z,59.67
2022-07-26T02:30:29.137Z,60.08
2022-07-26T02:32:57.090Z,59.79
2022-07-26T02:35:24.325Z,59.57
2022-07-26T02:37:51.506Z,59.79
2022-07-26T02:40:19.644Z,59.85
2022-07-26T02:42:46.887Z,60.12
2022-07-26T02:45:14.131Z,60.40
2022-07-26T02:47:51.592Z,59.54
2022-07-26T02:50:20.430Z,60.07
2022-07-26T02:52:48.340Z,60.54
2022-07-26T02:55:16.516Z,61.33
2022-07-26T02:57:46.219Z,60.83
2022-07-26T03:00:16.399Z,60.85
2022-07-26T03:02:43.783Z,60.68
2022-07-26T03:05:11.206Z,61.12
2022-07-26T03:07:38.471Z,61.37
2022-07-26T03:10:05.843Z,61.10
2022-07-26T03:12:33.138Z,60.52
2022-07-26T03:15:00.678Z,59.71
2022-07-26T03:17:27.944Z,58.38
2022-07-26T03:19:55.137Z,57.48
2022-07-26T03:22:22.374Z,56.50
2022-07-26T03:24:49.566Z,56.10
2022-07-26T03:27:16.759Z,57.41
2022-07-26T03:29:44.022Z,57.90
2022-07-26T03:32:11.355Z,57.87
2022-07-26T03:34:38.570Z,57.34
2022-07-26T03:37:05.906Z,56.41
2022-07-26T03:39:33.179Z,55.68
2022-07-26T03:42:00.459Z,55.69
2022-07-26T03:44:27.701Z,56.36
2022-07-26T03:46:55.070Z,56.40
2022-07-26T03:49:22.455Z,56.06
2022-07-26T03:51:49.815Z,56.36
2022-07-26T03:54:17.153Z,56.32
2022-07-26T03:56:44.557Z,57.50
2022-07-26T03:59:12.031Z,56.32
2022-07-26T04:01:42.194Z,55.95
2022-07-26T04:04:10.579Z,55.56
2022-07-26T04:06:39.456Z,55.45
2022-07-26T04:09:07.396Z,55.60
2022-07-26T04:11:35.635Z,55.81
2022-07-26T04:14:03.022Z,56.19
2022-07-26T04:16:30.307Z,55.89
2022-07-26T04:18:57.645Z,56.06
2022-07-26T04:21:24.980Z,56.56
2022-07-26T04:23:55.156Z,56.02
2022-07-26T04:26:22.478Z,56.14
2022-07-26T04:28:49.848Z,55.75
2022-07-26T04:31:17.151Z,55.77
2022-07-26T04:33:47.625Z,55.66
2022-07-26T04:36:15.938Z,55.72
2022-07-26T04:38:43.558Z,55.88
2022-07-26T04:41:11.023Z,55.40
2022-07-26T04:43:38.351Z,56.05
2022-07-26T04:46:05.803Z,56.22
2022-07-26T04:48:33.267Z,56.24
2022-07-26T04:51:01.735Z,56.54
2022-07-26T04:53:28.998Z,56.89
2022-07-26T04:55:56.321Z,56.94
2022-07-26T04:58:24.238Z,56.35
2022-07-26T05:03:39.156Z,56.26
2022-07-26T05:06:06.950Z,55.91
2022-07-26T05:08:34.236Z,55.35
2022-07-26T05:11:01.631Z,55.41
2022-07-26T05:13:30.538Z,55.35
2022-07-26T05:15:59.601Z,54.51
2022-07-26T05:18:27.644Z,54.27
2022-07-26T05:20:57.259Z,54.64
2022-07-26T05:23:24.627Z,53.95
2022-07-26T05:25:51.902Z,53.62
2022-07-26T05:28:19.297Z,53.65
2022-07-26T05:30:47.051Z,53.05
2022-07-26T05:33:16.413Z,52.82
2022-07-26T05:35:44.434Z,51.16
2022-07-26T05:38:11.732Z,51.35
2022-07-26T05:40:38.973Z,51.37
2022-07-26T05:43:06.281Z,51.53
2022-07-26T05:45:33.588Z,51.22
2022-07-26T05:48:00.989Z,50.35
2022-07-26T05:50:28.546Z,48.49
2022-07-26T05:52:55.813Z,47.78
2022-07-26T05:55:23.033Z,47.43
2022-07-26T05:57:50.265Z,47.72
2022-07-26T06:00:17.575Z,48.65
2022-07-26T06:02:44.872Z,48.82
2022-07-26T06:05:12.168Z,48.19
2022-07-26T06:07:39.414Z,47.74
2022-07-26T06:10:06.873Z,47.53
2022-07-26T06:12:34.185Z,47.25
2022-07-26T06:15:01.522Z,46.28
2022-07-26T06:17:30.307Z,43.81
2022-07-26T06:19:58.405Z,44.13
2022-07-26T06:22:25.958Z,43.69
2022-07-26T06:24:53.231Z,43.84
2022-07-26T06:27:20.551Z,43.61
2022-07-26T06:29:49.147Z,43.56
2022-07-26T06:32:16.430Z,43.86
2022-07-26T06:34:43.773Z,44.96
2022-07-26T06:37:14.919Z,45.79
2022-07-26T06:39:42.184Z,45.63
2022-07-26T06:42:09.389Z,44.27
2022-07-26T06:44:38.019Z,44.24
2022-07-26T06:47:05.276Z,43.93
2022-07-26T06:49:32.609Z,44.32
2022-07-26T06:51:59.947Z,44.60
2022-07-26T06:54:27.334Z,45.08
2022-07-26T06:56:54.801Z,45.00
2022-07-26T06:59:22.076Z,46.79
2022-07-26T07:01:58.433Z,47.62
2022-07-26T07:04:31.747Z,47.86
2022-07-26T07:07:05.157Z,47.71
2022-07-26T07:09:33.637Z,46.94
2022-07-26T07:12:09.902Z,46.67
2022-07-26T07:14:38.242Z,46.55
2022-07-26T07:17:12.083Z,46.45
2022-07-26T07:19:41.368Z,46.48
2022-07-26T07:22:11.849Z,46.03
2022-07-26T07:24:39.983Z,45.69
2022-07-26T07:27:07.449Z,45.87
2022-07-26T07:29:34.956Z,45.80
2022-07-26T07:32:03.558Z,45.68
2022-07-26T07:34:30.890Z,45.79
2022-07-26T07:36:58.163Z,45.56
2022-07-26T07:39:27.275Z,45.93
2022-07-26T07:42:02.640Z,45.59
2022-07-26T07:44:29.807Z,45.37
2022-07-26T07:46:57.215Z,44.88
2022-07-26T07:49:24.687Z,44.15
2022-07-26T07:51:51.999Z,44.67
2022-07-26T07:54:19.249Z,44.87
2022-07-26T07:56:50.457Z,44.65
2022-07-26T07:59:18.766Z,43.87
2022-07-26T08:01:46.076Z,43.40
2022-07-26T08:04:13.382Z,43.04
2022-07-26T08:06:41.345Z,42.49
2022-07-26T08:09:09.339Z,42.24
2022-07-26T08:11:41.875Z,42.26
2022-07-26T08:14:10.077Z,41.79
2022-07-26T08:16:37.408Z,40.76
2022-07-26T08:19:04.712Z,40.92
2022-07-26T08:21:31.993Z,39.68
2022-07-26T08:23:59.462Z,39.25
2022-07-26T08:26:26.748Z,39.82
2022-07-26T08:28:59.477Z,38.62
2022-07-26T08:31:36.813Z,38.54
2022-07-26T08:34:04.191Z,38.04
2022-07-26T08:36:32.938Z,37.47
2022-07-26T08:39:01.320Z,37.77
2022-07-26T08:41:28.726Z,37.58
2022-07-26T08:44:04.131Z,37.42
2022-07-26T08:46:34.440Z,35.99
2022-07-26T08:49:01.801Z,35.07
2022-07-26T08:51:30.792Z,35.08
2022-07-26T08:54:05.295Z,34.50
2022-07-26T08:56:34.115Z,34.48
2022-07-26T08:59:17.120Z,33.90
2022-07-26T09:01:51.574Z,33.74
2022-07-26T09:04:31.624Z,34.70
2022-07-26T09:07:10.421Z,34.42
2022-07-26T09:09:39.298Z,33.41
2022-07-26T09:12:17.015Z,32.80
2022-07-26T09:14:46.799Z,32.78
2022-07-26T09:17:15.142Z,32.87
2022-07-26T09:19:42.429Z,33.40
2022-07-26T09:22:13.549Z,32.63
2022-07-26T09:24:42.492Z,32.03
2022-07-26T09:27:11.211Z,31.97
2022-07-26T09:29:47.458Z,31.02
2022-07-26T09:32:18.934Z,30.90
2022-07-26T09:34:52.536Z,30.90
2022-07-26T09:37:56.488Z,30.63
2022-07-26T09:40:30.996Z,30.52
2022-07-26T09:42:59.907Z,31.35
2022-07-26T09:45:27.889Z,29.98
2022-07-26T09:47:57.997Z,30.51
2022-07-26T09:50:29.758Z,30.42
2022-07-26T09:53:08.258Z,30.03
2022-07-26T09:55:44.720Z,30.08
2022-07-26T09:58:14.209Z,30.73
2022-07-26T10:00:42.216Z,30.76
2022-07-26T10:03:09.820Z,30.68
2022-07-26T10:05:37.931Z,30.68
2022-07-26T10:08:05.419Z,31.09
2022-07-26T10:10:55.908Z,31.52
2022-07-26T10:13:23.527Z,31.55
2022-07-26T10:15:51.911Z,31.39
2022-07-26T10:18:39.123Z,31.06
2022-07-26T10:21:20.425Z,30.71
2022-07-26T10:23:50.120Z,30.93
2022-07-26T10:26:37.747Z,31.78
2022-07-26T10:29:17.179Z,31.65
2022-07-26T10:31:48.757Z,32.05
2022-07-26T10:34:32.697Z,32.26
2022-07-26T10:37:01.355Z,32.11
2022-07-26T10:39:28.815Z,32.04
2022-07-26T10:42:00.897Z,31.60
2022-07-26T10:44:29.036Z,32.04
2022-07-26T10:47:02.269Z,32.61
2022-07-26T10:50:03.183Z,32.50
2022-07-26T10:52:32.376Z,32.58
2022-07-26T10:55:06.552Z,32.41
2022-07-26T10:57:42.993Z,32.56
2022-07-26T11:00:17.678Z,32.85
2022-07-26T11:02:48.737Z,32.59
2022-07-26T11:05:17.730Z,32.66
2022-07-26T11:07:55.793Z,32.36
2022-07-26T11:10:24.768Z,32.39
2022-07-26T11:13:18.268Z,32.54
2022-07-26T11:15:47.239Z,32.79
2022-07-26T11:18:16.722Z,32.92
2022-07-26T11:20:44.944Z,33.06
2022-07-26T11:23:27.781Z,33.27
2022-07-26T11:26:02.183Z,33.52
2022-07-26T11:28:30.010Z,33.61
2022-07-26T11:31:00.229Z,33.65
2022-07-26T11:33:37.968Z,32.74
2022-07-26T11:36:06.146Z,33.07
2022-07-26T11:38:45.635Z,33.14
2022-07-26T11:41:15.196Z,33.71
2022-07-26T11:43:42.947Z,33.46
2022-07-26T11:46:10.409Z,33.41
2022-07-26T11:48:45.309Z,33.59
2022-07-26T11:51:14.123Z,34.29
2022-07-26T11:53:41.776Z,34.30
2022-07-26T11:56:20.597Z,34.86
2022-07-26T11:58:51.878Z,34.72
2022-07-26T12:01:20.182Z,34.39
2022-07-26T12:03:48.908Z,34.33
2022-07-26T12:06:17.723Z,33.74
2022-07-26T12:08:55.758Z,33.67
2022-07-26T12:11:25.558Z,33.67
2022-07-26T12:14:00.060Z,33.84
2022-07-26T12:16:34.202Z,33.46
2022-07-26T12:19:01.581Z,33.59
2022-07-26T12:21:39.407Z,33.57
2022-07-26T12:24:07.206Z,33.85
2022-07-26T12:26:34.921Z,33.41
2022-07-26T12:29:20.898Z,33.32
2022-07-26T12:32:00.751Z,32.38
2022-07-26T12:34:27.985Z,33.01
2022-07-26T12:36:55.228Z,32.75
2022-07-26T12:39:22.524Z,32.67
2022-07-26T12:41:50.575Z,32.63
2022-07-26T12:44:17.818Z,32.86
2022-07-26T12:46:45.147Z,32.46
2022-07-26T12:49:12.605Z,32.16
2022-07-26T12:51:40.071Z,31.55
2022-07-26T12:54:07.646Z,31.44
2022-07-26T12:56:35.160Z,31.40
2022-07-26T12:59:02.383Z,31.33
2022-07-26T13:01:30.037Z,31.05
2022-07-26T13:03:57.325Z,30.71
2022-07-26T13:06:24.586Z,31.25
2022-07-26T13:08:51.818Z,31.71
2022-07-26T13:11:19.014Z,32.14
2022-07-26T13:13:46.210Z,32.38
2022-07-26T13:16:13.386Z,32.78
2022-07-26T13:18:40.627Z,32.85
2022-07-26T13:21:07.854Z,32.27
2022-07-26T13:23:35.850Z,32.35
2022-07-26T13:26:04.420Z,32.32
2022-07-26T13:28:36.915Z,32.19
2022-07-26T13:31:04.227Z,31.74
2022-07-26T13:33:32.328Z,31.85
2022-07-26T13:35:59.512Z,31.68
2022-07-26T13:38:28.384Z,31.36
2022-07-26T13:40:56.517Z,31.65
2022-07-26T13:43:24.521Z,32.00
2022-07-26T13:45:51.873Z,32.33
2022-07-26T13:48:19.357Z,32.54
2022-07-26T13:50:46.894Z,33.00
2022-07-26T13:53:14.189Z,32.43
2022-07-26T13:55:41.780Z,32.53
2022-07-26T13:58:10.293Z,32.36
2022-07-26T14:00:38.206Z,32.77
2022-07-26T14:03:05.814Z,32.57
2022-07-26T14:05:33.419Z,33.15
2022-07-26T14:08:00.737Z,33.40
2022-07-26T14:10:28.161Z,33.46
2022-07-26T14:12:55.472Z,33.11
2022-07-26T14:15:23.642Z,33.12
2022-07-26T14:17:51.643Z,32.88
2022-07-26T14:20:19.222Z,33.07
2022-07-26T14:22:47.669Z,33.23
2022-07-26T14:25:14.962Z,33.15
2022-07-26T14:27:42.288Z,33.03
2022-07-26T14:30:09.920Z,32.96
2022-07-26T14:32:37.212Z,32.90
2022-07-26T14:35:04.841Z,32.90
2022-07-26T14:37:43.571Z,32.91
2022-07-26T14:40:31.056Z,32.72
2022-07-26T14:42:58.214Z,33.03
2022-07-26T14:45:25.516Z,33.14
2022-07-26T14:47:52.676Z,33.01
2022-07-26T14:50:19.998Z,32.90
2022-07-26T14:52:47.620Z,33.28
2022-07-26T14:55:15.310Z,33.61
2022-07-26T14:57:42.578Z,33.80
2022-07-26T15:00:10.985Z,34.19
2022-07-26T15:02:39.673Z,33.96
2022-07-26T15:05:07.078Z,34.32
2022-07-26T15:07:34.390Z,34.75
2022-07-26T15:10:01.736Z,35.27
2022-07-26T15:12:28.969Z,35.28
2022-07-26T15:14:56.766Z,35.49
2022-07-26T15:17:24.028Z,35.46
2022-07-26T15:19:51.301Z,35.81
2022-07-26T15:22:18.528Z,35.90
2022-07-26T15:24:45.717Z,36.37
2022-07-26T15:27:12.993Z,36.15
2022-07-26T15:29:41.332Z,36.63
2022-07-26T15:32:08.604Z,36.58
2022-07-26T15:34:35.876Z,36.38
2022-07-26T15:37:03.210Z,36.78
2022-07-26T15:39:30.538Z,36.63
2022-07-26T15:42:05.404Z,36.43
2022-07-26T15:44:36.821Z,36.56
2022-07-26T15:47:04.652Z,36.39
2022-07-26T15:49:31.965Z,36.76
2022-07-26T15:51:59.295Z,36.20
2022-07-26T15:54:26.557Z,36.07
2022-07-26T15:56:53.693Z,35.72
2022-07-26T15:59:21.025Z,35.13
2022-07-26T16:01:48.227Z,34.51
2022-07-26T16:04:15.521Z,34.40
2022-07-26T16:06:42.921Z,34.43
2022-07-26T16:09:17.206Z,34.33
2022-07-26T16:11:45.821Z,34.01
2022-07-26T16:14:12.997Z,33.39
2022-07-26T16:16:40.238Z,33.26
2022-07-26T16:19:07.854Z,33.14
2022-07-26T16:21:35.311Z,32.83
2022-07-26T16:24:06.655Z,33.05
2022-07-26T16:26:35.481Z,33.45
2022-07-26T16:29:02.963Z,33.51
2022-07-26T16:31:30.565Z,33.29
2022-07-26T16:33:57.790Z,33.26
2022-07-26T16:36:25.139Z,33.33
2022-07-26T16:38:55.110Z,33.74
2022-07-26T16:41:22.893Z,33.09
2022-07-26T16:43:50.527Z,33.39
2022-07-26T16:46:18.125Z,33.56
2022-07-26T16:48:45.543Z,34.22
2022-07-26T16:51:16.776Z,33.92
2022-07-26T16:53:45.272Z,34.16
2022-07-26T16:56:12.542Z,34.21
2022-07-26T16:58:39.957Z,34.16
2022-07-26T17:01:07.767Z,34.05
2022-07-26T17:03:35.393Z,34.26
2022-07-26T17:06:06.685Z,34.11
2022-07-26T17:08:34.608Z,34.47
2022-07-26T17:11:02.193Z,34.28
2022-07-26T17:13:29.466Z,33.97
2022-07-26T17:15:56.811Z,33.61
2022-07-26T17:18:24.297Z,33.37
2022-07-26T17:20:51.554Z,33.00
2022-07-26T17:23:19.509Z,32.19
2022-07-26T17:25:46.772Z,31.29
2022-07-26T17:28:14.291Z,30.89
2022-07-26T17:30:41.531Z,30.86
2022-07-26T17:33:08.936Z,30.98
2022-07-26T17:35:36.425Z,31.14
2022-07-26T17:38:04.441Z,31.22
2022-07-26T17:40:33.750Z,31.61
2022-07-26T17:43:01.104Z,31.70
2022-07-26T17:45:28.361Z,32.25
2022-07-26T17:47:55.614Z,32.45
2022-07-26T17:50:38.864Z,33.05
2022-07-26T17:53:06.565Z,33.26
2022-07-26T17:55:33.950Z,33.23
2022-07-26T17:58:01.233Z,33.26
2022-07-26T18:00:28.930Z,33.00
2022-07-26T18:02:57.060Z,32.96
2022-07-26T18:05:31.744Z,32.80
2022-07-26T18:08:01.587Z,32.90
2022-07-26T18:10:29.215Z,32.99
2022-07-26T18:12:56.475Z,33.12
2022-07-26T18:15:23.754Z,33.17
2022-07-26T18:17:51.078Z,33.48
2022-07-26T18:20:18.426Z,33.32
2022-07-26T18:22:50.182Z,33.62
2022-07-26T18:25:17.876Z,33.72
2022-07-26T18:27:45.264Z,33.80
2022-07-26T18:30:12.706Z,33.69
2022-07-26T18:32:40.149Z,33.63
2022-07-26T18:35:07.551Z,33.90
2022-07-26T18:37:34.778Z,34.21
2022-07-26T18:40:02.084Z,34.21
2022-07-26T18:42:29.309Z,34.34
2022-07-26T18:44:56.509Z,34.29
2022-07-26T18:47:23.726Z,34.63
2022-07-26T18:49:51.391Z,34.96
2022-07-26T18:52:28.559Z,35.00
2022-07-26T18:55:00.972Z,35.31
2022-07-26T18:57:28.200Z,35.65
2022-07-26T18:59:55.339Z,35.56
2022-07-26T19:02:22.555Z,35.91
2022-07-26T19:04:49.784Z,35.99
2022-07-26T19:07:17.023Z,35.90
2022-07-26T19:09:44.225Z,36.23
2022-07-26T19:12:11.397Z,36.33
2022-07-26T19:14:38.589Z,36.44
2022-07-26T19:17:09.783Z,36.45
2022-07-26T19:19:37.582Z,36.20
2022-07-26T19:22:05.429Z,36.31
2022-07-26T19:24:41.806Z,36.75
2022-07-26T19:27:09.492Z,37.07
2022-07-26T19:29:37.616Z,37.50
2022-07-26T19:32:05.450Z,37.61
2022-07-26T19:34:32.832Z,37.76
2022-07-26T19:37:00.058Z,37.89
2022-07-26T19:39:27.284Z,38.12
2022-07-26T19:41:54.608Z,38.03
2022-07-26T19:44:22.091Z,38.05
2022-07-26T19:46:53.011Z,38.19
2022-07-26T19:49:22.800Z,38.21
2022-07-26T19:51:50.133Z,38.25
2022-07-26T19:54:17.318Z,38.29
2022-07-26T19:56:44.498Z,38.28
2022-07-26T19:59:12.041Z,38.14
2022-07-26T20:01:39.725Z,37.87
2022-07-26T20:04:07.011Z,37.59
2022-07-26T20:06:35.309Z,37.36
2022-07-26T20:09:02.462Z,37.57
2022-07-26T20:11:29.640Z,37.42
2022-07-26T20:13:56.831Z,37.40
2022-07-26T20:16:24.075Z,37.15
2022-07-26T20:18:51.308Z,37.13
2022-07-26T20:21:18.587Z,37.27
2022-07-26T20:23:45.908Z,37.37
2022-07-26T20:26:14.323Z,37.34
2022-07-26T20:28:42.132Z,37.85
2022-07-26T20:31:09.352Z,37.71
2022-07-26T20:33:36.636Z,37.69
2022-07-26T20:36:03.945Z,37.41
2022-07-26T20:38:31.136Z,37.87
2022-07-26T20:41:05.319Z,38.05
2022-07-26T20:43:34.511Z,38.21
2022-07-26T20:46:02.243Z,38.10
2022-07-26T20:48:29.826Z,38.07
2022-07-26T20:50:57.130Z,38.08
2022-07-26T20:53:25.001Z,38.03
2022-07-26T20:55:52.244Z,38.23
2022-07-26T20:58:20.112Z,38.51
2022-07-26T21:00:47.409Z,38.54
2022-07-26T21:03:16.867Z,38.78
2022-07-26T21:05:44.785Z,38.91
2022-07-26T21:08:12.246Z,39.25
2022-07-26T21:10:39.682Z,39.22
2022-07-26T21:13:06.996Z,39.43
2022-07-26T21:15:34.674Z,39.63
2022-07-26T21:18:01.843Z,39.95
2022-07-26T21:20:29.245Z,39.87
2022-07-26T21:23:08.077Z,40.29
2022-07-26T21:25:43.737Z,40.52
2022-07-26T21:28:11.284Z,40.59
2022-07-26T21:30:38.655Z,40.57
2022-07-26T21:33:06.145Z,40.74
2022-07-26T21:35:33.605Z,40.69
2022-07-26T21:38:01.088Z,40.69
2022-07-26T21:40:28.408Z,40.62
2022-07-26T21:42:55.615Z,40.84
2022-07-26T21:45:22.789Z,40.97
2022-07-26T21:47:50.015Z,40.96
2022-07-26T21:50:17.291Z,40.61
2022-07-26T21:52:44.479Z,40.52
2022-07-26T21:55:15.547Z,40.64
2022-07-26T21:57:45.484Z,40.54
2022-07-26T22:00:14.712Z,40.87
2022-07-26T22:02:42.122Z,40.85
2022-07-26T22:05:27.716Z,40.73
2022-07-26T22:07:55.573Z,40.98
2022-07-26T22:10:22.797Z,41.02
2022-07-26T22:12:50.017Z,41.04
2022-07-26T22:15:17.276Z,40.74
2022-07-26T22:17:44.527Z,40.59
2022-07-26T22:20:11.965Z,40.54
2022-07-26T22:22:39.340Z,40.64
2022-07-26T22:25:06.748Z,40.74
2022-07-26T22:27:34.521Z,40.90
2022-07-26T22:30:02.741Z,40.73
2022-07-26T22:32:29.954Z,40.43
2022-07-26T22:34:57.173Z,40.22
2022-07-26T22:37:24.400Z,40.05
2022-07-26T22:39:51.608Z,39.71
2022-07-26T22:42:18.859Z,39.91
2022-07-26T22:44:46.092Z,39.67
2022-07-26T22:47:13.258Z,39.61
2022-07-26T22:49:40.550Z,39.51
2022-07-26T22:52:07.887Z,39.47
2022-07-26T22:54:35.044Z,39.52
2022-07-26T22:57:02.294Z,39.28
2022-07-26T22:59:29.479Z,39.50
2022-07-26T23:01:56.993Z,39.33
2022-07-26T23:04:24.189Z,39.07
2022-07-26T23:06:52.065Z,38.73
2022-07-26T23:09:22.039Z,38.77
2022-07-26T23:11:49.248Z,38.63
2022-07-26T23:14:16.511Z,38.39
2022-07-26T23:16:43.721Z,38.50
2022-07-26T23:19:11.447Z,38.27
2022-07-26T23:21:38.852Z,38.34
2022-07-26T23:24:06.211Z,38.36
2022-07-26T23:26:33.429Z,38.33
2022-07-26T23:29:00.662Z,38.20
2022-07-26T23:31:27.964Z,38.37
2022-07-26T23:33:55.196Z,38.01
2022-07-26T23:36:26.244Z,38.54
2022-07-26T23:38:54.314Z,37.84
2022-07-26T23:41:21.573Z,37.98
2022-07-26T23:43:48.767Z,38.08
2022-07-26T23:46:16.194Z,38.58
2022-07-26T23:48:43.514Z,38.44
2022-07-26T23:51:10.741Z,38.48
2022-07-26T23:53:37.999Z,38.66
2022-07-26T23:56:05.288Z,38.33
2022-07-26T23:58:32.456Z,39.81
